sensor_id;sensor_type;location;lat;lon;timestamp;pressure;altitude;pressure_sealevel;temperature;humidity
57779;BME280;43608;49.486;9.640;2022-12-20T00:00:15;99295.84;;;-0.68;88.44
57779;BME280;43608;49.486;9.640;2022-12-20T00:00:46;99295.75;;;-0.69;88.52
57779;BME280;43608;49.486;9.640;2022-12-20T00:01:20;99289.75;;;-0.68;88.41
57779;BME280;43608;49.486;9.640;2022-12-20T00:01:51;99244.34;;;-0.91;88.78
57779;BME280;43608;49.486;9.640;2022-12-20T00:02:21;99289.00;;;-0.65;88.69
57779;BME280;43608;49.486;9.640;2022-12-20T00:02:51;99268.47;;;-0.77;88.33
57779;BME280;43608;49.486;9.640;2022-12-20T00:03:22;99265.03;;;-0.76;88.65
57779;BME280;43608;49.486;9.640;2022-12-20T00:03:54;99277.53;;;-0.69;88.58
57779;BME280;43608;49.486;9.640;2022-12-20T00:04:25;99266.09;;;-0.73;88.49
57779;BME280;43608;49.486;9.640;2022-12-20T00:04:55;99275.03;;;-0.68;88.41
57779;BME280;43608;49.486;9.640;2022-12-20T00:05:26;99276.97;;;-0.63;88.25
57779;BME280;43608;49.486;9.640;2022-12-20T00:05:56;99271.44;;;-0.70;88.53
57779;BME280;43608;49.486;9.640;2022-12-20T00:06:27;99245.47;;;-0.86;88.17
57779;BME280;43608;49.486;9.640;2022-12-20T00:06:58;99275.97;;;-0.65;88.41
57779;BME280;43608;49.486;9.640;2022-12-20T00:07:28;99266.09;;;-0.73;88.61
57779;BME280;43608;49.486;9.640;2022-12-20T00:07:59;99274.28;;;-0.65;88.38
57779;BME280;43608;49.486;9.640;2022-12-20T00:08:29;99275.31;;;-0.61;88.39
57779;BME280;43608;49.486;9.640;2022-12-20T00:09:02;99282.31;;;-0.60;88.36
57779;BME280;43608;49.486;9.640;2022-12-20T00:09:32;99271.81;;;-0.62;88.60
57779;BME280;43608;49.486;9.640;2022-12-20T00:10:03;99271.69;;;-0.65;88.73
57779;BME280;43608;49.486;9.640;2022-12-20T00:10:35;99271.91;;;-0.60;88.29
57779;BME280;43608;49.486;9.640;2022-12-20T00:11:06;99275.31;;;-0.61;88.53
57779;BME280;43608;49.486;9.640;2022-12-20T00:11:39;99275.41;;;-0.60;88.24
57779;BME280;43608;49.486;9.640;2022-12-20T00:12:10;99270.94;;;-0.62;88.48
57779;BME280;43608;49.486;9.640;2022-12-20T00:12:40;99262.66;;;-0.72;88.21
57779;BME280;43608;49.486;9.640;2022-12-20T00:13:11;99277.84;;;-0.63;88.69
57779;BME280;43608;49.486;9.640;2022-12-20T00:13:45;99277.78;;;-0.64;88.55
57779;BME280;43608;49.486;9.640;2022-12-20T00:14:16;99286.63;;;-0.61;88.33
57779;BME280;43608;49.486;9.640;2022-12-20T00:14:46;99263.78;;;-0.67;88.27
57779;BME280;43608;49.486;9.640;2022-12-20T00:15:17;99267.44;;;-0.63;88.14
57779;BME280;43608;49.486;9.640;2022-12-20T00:15:47;99269.72;;;-0.69;88.55
57779;BME280;43608;49.486;9.640;2022-12-20T00:16:20;99285.81;;;-0.60;88.65
57779;BME280;43608;49.486;9.640;2022-12-20T00:16:51;99275.97;;;-0.65;88.85
57779;BME280;43608;49.486;9.640;2022-12-20T00:17:21;99252.09;;;-0.75;88.43
57779;BME280;43608;49.486;9.640;2022-12-20T00:17:52;99274.44;;;-0.62;88.50
57779;BME280;43608;49.486;9.640;2022-12-20T00:18:22;99269.97;;;-0.64;88.41
57779;BME280;43608;49.486;9.640;2022-12-20T00:18:54;99269.97;;;-0.64;88.64
57779;BME280;43608;49.486;9.640;2022-12-20T00:19:25;99265.56;;;-0.65;88.46
57779;BME280;43608;49.486;9.640;2022-12-20T00:19:55;99269.16;;;-0.63;88.37
57779;BME280;43608;49.486;9.640;2022-12-20T00:20:27;99268.16;;;-0.65;88.36
57779;BME280;43608;49.486;9.640;2022-12-20T00:20:58;99262.59;;;-0.73;88.53
57779;BME280;43608;49.486;9.640;2022-12-20T00:21:30;99281.19;;;-0.65;88.54
57779;BME280;43608;49.486;9.640;2022-12-20T00:22:01;99271.50;;;-0.68;88.73
57779;BME280;43608;49.486;9.640;2022-12-20T00:22:31;99266.16;;;-0.71;88.84
57779;BME280;43608;49.486;9.640;2022-12-20T00:23:02;99256.19;;;-0.80;88.52
57779;BME280;43608;49.486;9.640;2022-12-20T00:23:33;99292.50;;;-0.65;88.83
57779;BME280;43608;49.486;9.640;2022-12-20T00:24:05;99286.41;;;-0.65;88.64
57779;BME280;43608;49.486;9.640;2022-12-20T00:24:35;99259.53;;;-0.82;88.83
57779;BME280;43608;49.486;9.640;2022-12-20T00:25:06;99269.25;;;-0.78;89.02
57779;BME280;43608;49.486;9.640;2022-12-20T00:25:36;99260.56;;;-0.79;88.85
57779;BME280;43608;49.486;9.640;2022-12-20T00:26:10;99273.25;;;-0.69;88.75
57779;BME280;43608;49.486;9.640;2022-12-20T00:26:41;99266.25;;;-0.70;89.04
57779;BME280;43608;49.486;9.640;2022-12-20T00:27:11;99274.13;;;-0.68;89.11
57779;BME280;43608;49.486;9.640;2022-12-20T00:27:42;99258.78;;;-0.80;88.84
57779;BME280;43608;49.486;9.640;2022-12-20T00:28:12;99269.66;;;-0.71;88.93
57779;BME280;43608;49.486;9.640;2022-12-20T00:28:43;99271.69;;;-0.65;88.55
57779;BME280;43608;49.486;9.640;2022-12-20T00:29:14;99260.78;;;-0.74;88.72
57779;BME280;43608;49.486;9.640;2022-12-20T00:29:44;99272.31;;;-0.69;88.66
57779;BME280;43608;49.486;9.640;2022-12-20T00:30:15;99278.75;;;-0.62;88.69
57779;BME280;43608;49.486;9.640;2022-12-20T00:30:52;99237.91;;;-0.81;88.58
57779;BME280;43608;49.486;9.640;2022-12-20T00:31:24;99251.97;;;-0.78;88.51
57779;BME280;43608;49.486;9.640;2022-12-20T00:31:54;99278.75;;;-0.62;88.80
57779;BME280;43608;49.486;9.640;2022-12-20T00:32:26;99268.16;;;-0.65;88.55
57779;BME280;43608;49.486;9.640;2022-12-20T00:32:56;99262.91;;;-0.67;88.42
57779;BME280;43608;49.486;9.640;2022-12-20T00:33:27;99255.75;;;-0.71;88.67
57779;BME280;43608;49.486;9.640;2022-12-20T00:33:58;99231.56;;;-0.87;88.48
57779;BME280;43608;49.486;9.640;2022-12-20T00:34:29;99265.63;;;-0.64;88.58
57779;BME280;43608;49.486;9.640;2022-12-20T00:34:59;99268.25;;;-0.64;88.29
57779;BME280;43608;49.486;9.640;2022-12-20T00:35:29;99249.63;;;-0.72;88.91
57779;BME280;43608;49.486;9.640;2022-12-20T00:36:00;99247.63;;;-0.77;88.44
57779;BME280;43608;49.486;9.640;2022-12-20T00:36:31;99285.06;;;-0.57;88.75
57779;BME280;43608;49.486;9.640;2022-12-20T00:37:02;99270.03;;;-0.63;88.24
57779;BME280;43608;49.486;9.640;2022-12-20T00:37:32;99257.63;;;-0.69;88.12
57779;BME280;43608;49.486;9.640;2022-12-20T00:38:02;99271.75;;;-0.63;88.47
57779;BME280;43608;49.486;9.640;2022-12-20T00:38:34;99250.63;;;-0.70;88.10
57779;BME280;43608;49.486;9.640;2022-12-20T00:39:04;99271.09;;;-0.59;88.24
57779;BME280;43608;49.486;9.640;2022-12-20T00:39:34;99265.00;;;-0.60;88.63
57779;BME280;43608;49.486;9.640;2022-12-20T00:40:05;99238.34;;;-0.72;88.34
57779;BME280;43608;49.486;9.640;2022-12-20T00:40:36;99272.22;;;-0.54;88.59
57779;BME280;43608;49.486;9.640;2022-12-20T00:41:09;99270.41;;;-0.55;88.68
57779;BME280;43608;49.486;9.640;2022-12-20T00:41:39;99237.69;;;-0.68;88.34
57779;BME280;43608;49.486;9.640;2022-12-20T00:42:10;99258.06;;;-0.59;88.69
57779;BME280;43608;49.486;9.640;2022-12-20T00:42:40;99235.66;;;-0.74;88.38
57779;BME280;43608;49.486;9.640;2022-12-20T00:43:11;99264.41;;;-0.54;88.66
57779;BME280;43608;49.486;9.640;2022-12-20T00:43:42;99248.31;;;-0.63;88.81
57779;BME280;43608;49.486;9.640;2022-12-20T00:44:13;99256.34;;;-0.59;88.43
57779;BME280;43608;49.486;9.640;2022-12-20T00:44:43;99260.06;;;-0.54;88.62
57779;BME280;43608;49.486;9.640;2022-12-20T00:45:13;99261.78;;;-0.54;88.27
57779;BME280;43608;49.486;9.640;2022-12-20T00:45:44;99262.47;;;-0.58;88.56
57779;BME280;43608;49.486;9.640;2022-12-20T00:46:16;99262.59;;;-0.55;88.55
57779;BME280;43608;49.486;9.640;2022-12-20T00:46:46;99257.09;;;-0.61;88.67
57779;BME280;43608;49.486;9.640;2022-12-20T00:47:17;99258.06;;;-0.59;88.40
57779;BME280;43608;49.486;9.640;2022-12-20T00:47:47;99265.22;;;-0.55;88.34
57779;BME280;43608;49.486;9.640;2022-12-20T00:48:17;99242.75;;;-0.71;88.35
57779;BME280;43608;49.486;9.640;2022-12-20T00:48:48;99254.41;;;-0.63;88.58
57779;BME280;43608;49.486;9.640;2022-12-20T00:49:18;99229.41;;;-0.77;88.60
57779;BME280;43608;49.486;9.640;2022-12-20T00:49:49;99235.00;;;-0.70;88.38
57779;BME280;43608;49.486;9.640;2022-12-20T00:50:19;99249.28;;;-0.61;88.67
57779;BME280;43608;49.486;9.640;2022-12-20T00:50:50;99235.88;;;-0.69;88.33
57779;BME280;43608;49.486;9.640;2022-12-20T00:51:23;99249.59;;;-0.55;88.55
57779;BME280;43608;49.486;9.640;2022-12-20T00:51:54;99229.88;;;-0.68;88.54
57779;BME280;43608;49.486;9.640;2022-12-20T00:52:24;99250.31;;;-0.58;88.70
57779;BME280;43608;49.486;9.640;2022-12-20T00:52:54;99242.38;;;-0.61;88.73
57779;BME280;43608;49.486;9.640;2022-12-20T00:53:25;99253.16;;;-0.53;88.37
57779;BME280;43608;49.486;9.640;2022-12-20T00:53:55;99242.38;;;-0.61;88.70
57779;BME280;43608;49.486;9.640;2022-12-20T00:54:26;99222.06;;;-0.68;88.63
57779;BME280;43608;49.486;9.640;2022-12-20T00:54:56;99204.19;;;-0.78;88.46
57779;BME280;43608;49.486;9.640;2022-12-20T00:55:26;99206.41;;;-0.86;88.33
57779;BME280;43608;49.486;9.640;2022-12-20T00:55:57;99260.00;;;-0.55;88.60
57779;BME280;43608;49.486;9.640;2022-12-20T00:56:28;99266.75;;;-0.59;88.63
57779;BME280;43608;49.486;9.640;2022-12-20T00:56:58;99258.06;;;-0.59;88.60
57779;BME280;43608;49.486;9.640;2022-12-20T00:57:29;99268.69;;;-0.55;88.68
57779;BME280;43608;49.486;9.640;2022-12-20T00:57:59;99258.22;;;-0.56;88.98
57779;BME280;43608;49.486;9.640;2022-12-20T00:58:31;99263.66;;;-0.52;88.58
57779;BME280;43608;49.486;9.640;2022-12-20T00:59:02;99269.75;;;-0.51;88.63
57779;BME280;43608;49.486;9.640;2022-12-20T00:59:33;99268.06;;;-0.51;88.62
57779;BME280;43608;49.486;9.640;2022-12-20T01:00:03;99271.53;;;-0.50;88.96
57779;BME280;43608;49.486;9.640;2022-12-20T01:00:34;99234.88;;;-0.73;88.99
57779;BME280;43608;49.486;9.640;2022-12-20T01:01:12;99280.22;;;-0.50;88.74
57779;BME280;43608;49.486;9.640;2022-12-20T01:01:43;99275.75;;;-0.52;89.15
57779;BME280;43608;49.486;9.640;2022-12-20T01:02:14;99280.22;;;-0.50;88.92
57779;BME280;43608;49.486;9.640;2022-12-20T01:02:44;99286.34;;;-0.49;89.21
57779;BME280;43608;49.486;9.640;2022-12-20T01:03:15;99246.22;;;-0.71;89.27
57779;BME280;43608;49.486;9.640;2022-12-20T01:03:45;99285.44;;;-0.50;88.99
57779;BME280;43608;49.486;9.640;2022-12-20T01:04:16;99261.41;;;-0.62;89.07
57779;BME280;43608;49.486;9.640;2022-12-20T01:04:48;99236.78;;;-0.69;88.93
57779;BME280;43608;49.486;9.640;2022-12-20T01:05:19;99265.06;;;-0.58;88.84
57779;BME280;43608;49.486;9.640;2022-12-20T01:06:08;99270.56;;;-0.52;88.95
57779;BME280;43608;49.486;9.640;2022-12-20T01:06:39;99279.47;;;-0.47;89.16
57779;BME280;43608;49.486;9.640;2022-12-20T01:07:09;99271.66;;;-0.47;89.30
57779;BME280;43608;49.486;9.640;2022-12-20T01:07:40;99269.81;;;-0.50;89.27
57779;BME280;43608;49.486;9.640;2022-12-20T01:08:10;99276.88;;;-0.47;89.26
57779;BME280;43608;49.486;9.640;2022-12-20T01:08:41;99281.28;;;-0.46;89.10
57779;BME280;43608;49.486;9.640;2022-12-20T01:09:11;99268.88;;;-0.52;89.19
57779;BME280;43608;49.486;9.640;2022-12-20T01:09:42;99247.34;;;-0.65;89.04
57779;BME280;43608;49.486;9.640;2022-12-20T01:10:13;99267.06;;;-0.53;89.18
57779;BME280;43608;49.486;9.640;2022-12-20T01:10:43;99257.31;;;-0.57;88.86
57779;BME280;43608;49.486;9.640;2022-12-20T01:11:15;99268.25;;;-0.46;88.98
57779;BME280;43608;49.486;9.640;2022-12-20T01:11:46;99259.50;;;-0.48;89.35
57779;BME280;43608;49.486;9.640;2022-12-20T01:12:16;99249.44;;;-0.58;89.25
57779;BME280;43608;49.486;9.640;2022-12-20T01:12:47;99255.66;;;-0.55;89.00
57779;BME280;43608;49.486;9.640;2022-12-20T01:13:17;99260.88;;;-0.55;89.48
57779;BME280;43608;49.486;9.640;2022-12-20T01:13:50;99265.59;;;-0.47;89.37
57779;BME280;43608;49.486;9.640;2022-12-20T01:14:21;99261.13;;;-0.50;89.41
57779;BME280;43608;49.486;9.640;2022-12-20T01:14:52;99256.66;;;-0.53;89.55
57779;BME280;43608;49.486;9.640;2022-12-20T01:15:22;99245.13;;;-0.58;89.34
57779;BME280;43608;49.486;9.640;2022-12-20T01:15:53;99253.44;;;-0.47;89.95
57779;BME280;43608;49.486;9.640;2022-12-20T01:16:30;99265.59;;;-0.47;89.83
57779;BME280;43608;49.486;9.640;2022-12-20T01:17:00;99227.44;;;-0.65;89.88
57779;BME280;43608;49.486;9.640;2022-12-20T01:17:31;99250.63;;;-0.52;89.69
57779;BME280;43608;49.486;9.640;2022-12-20T01:18:01;99255.25;;;-0.46;89.95
57779;BME280;43608;49.486;9.640;2022-12-20T01:18:31;99243.56;;;-0.54;90.14
57779;BME280;43608;49.486;9.640;2022-12-20T01:19:03;99258.81;;;-0.44;89.77
57779;BME280;43608;49.486;9.640;2022-12-20T01:19:33;99249.28;;;-0.43;90.08
57779;BME280;43608;49.486;9.640;2022-12-20T01:20:04;99257.16;;;-0.42;89.74
57779;BME280;43608;49.486;9.640;2022-12-20T01:20:35;99249.34;;;-0.42;89.80
57779;BME280;43608;49.486;9.640;2022-12-20T01:21:08;99252.88;;;-0.41;90.02
57779;BME280;43608;49.486;9.640;2022-12-20T01:21:39;99246.84;;;-0.40;89.78
57779;BME280;43608;49.486;9.640;2022-12-20T01:22:13;99241.47;;;-0.43;90.01
57779;BME280;43608;49.486;9.640;2022-12-20T01:22:43;99227.41;;;-0.47;89.75
57779;BME280;43608;49.486;9.640;2022-12-20T01:23:14;99247.78;;;-0.38;90.10
57779;BME280;43608;49.486;9.640;2022-12-20T01:23:44;99216.47;;;-0.58;89.84
57779;BME280;43608;49.486;9.640;2022-12-20T01:24:18;99243.50;;;-0.38;90.30
57779;BME280;43608;49.486;9.640;2022-12-20T01:24:49;99215.38;;;-0.63;90.15
57779;BME280;43608;49.486;9.640;2022-12-20T01:25:19;99235.97;;;-0.50;90.08
57779;BME280;43608;49.486;9.640;2022-12-20T01:25:50;99255.63;;;-0.38;89.79
57779;BME280;43608;49.486;9.640;2022-12-20T01:26:23;99251.22;;;-0.39;90.15
57779;BME280;43608;49.486;9.640;2022-12-20T01:26:53;99247.72;;;-0.40;89.79
57779;BME280;43608;49.486;9.640;2022-12-20T01:27:24;99246.97;;;-0.37;90.05
57779;BME280;43608;49.486;9.640;2022-12-20T01:27:55;99227.41;;;-0.47;90.09
57779;BME280;43608;49.486;9.640;2022-12-20T01:28:26;99250.47;;;-0.37;89.79
57779;BME280;43608;49.486;9.640;2022-12-20T01:28:58;99248.47;;;-0.42;89.94
57779;BME280;43608;49.486;9.640;2022-12-20T01:29:29;99244.16;;;-0.42;90.39
57779;BME280;43608;49.486;9.640;2022-12-20T01:29:59;99249.34;;;-0.42;90.19
57779;BME280;43608;49.486;9.640;2022-12-20T01:30:30;99258.38;;;-0.35;89.98
57779;BME280;43608;49.486;9.640;2022-12-20T01:31:00;99249.53;;;-0.39;89.94
57779;BME280;43608;49.486;9.640;2022-12-20T01:31:31;99251.22;;;-0.39;90.28
57779;BME280;43608;49.486;9.640;2022-12-20T01:32:01;99242.59;;;-0.38;90.12
57779;BME280;43608;49.486;9.640;2022-12-20T01:32:31;99219.53;;;-0.48;90.11
57779;BME280;43608;49.486;9.640;2022-12-20T01:33:02;99241.63;;;-0.40;90.04
57779;BME280;43608;49.486;9.640;2022-12-20T01:33:33;99233.81;;;-0.40;89.80
57779;BME280;43608;49.486;9.640;2022-12-20T01:34:04;99240.78;;;-0.39;90.08
57779;BME280;43608;49.486;9.640;2022-12-20T01:34:34;99231.13;;;-0.42;90.11
57779;BME280;43608;49.486;9.640;2022-12-20T01:35:05;99249.81;;;-0.32;90.24
57779;BME280;43608;49.486;9.640;2022-12-20T01:35:35;99199.81;;;-0.61;89.86
57779;BME280;43608;49.486;9.640;2022-12-20T01:36:07;99248.16;;;-0.30;89.90
57779;BME280;43608;49.486;9.640;2022-12-20T01:36:39;99248.09;;;-0.32;90.09
57779;BME280;43608;49.486;9.640;2022-12-20T01:37:10;99239.03;;;-0.40;89.85
57779;BME280;43608;49.486;9.640;2022-12-20T01:37:41;99229.38;;;-0.43;89.95
57779;BME280;43608;49.486;9.640;2022-12-20T01:38:11;99250.78;;;-0.30;89.95
57779;BME280;43608;49.486;9.640;2022-12-20T01:38:42;99208.81;;;-0.55;90.27
57779;BME280;43608;49.486;9.640;2022-12-20T01:39:15;99216.03;;;-0.49;90.57
57779;BME280;43608;49.486;9.640;2022-12-20T01:39:45;99247.34;;;-0.29;90.24
57779;BME280;43608;49.486;9.640;2022-12-20T01:40:16;99232.16;;;-0.38;90.28
57779;BME280;43608;49.486;9.640;2022-12-20T01:40:46;99214.56;;;-0.44;90.24
57779;BME280;43608;49.486;9.640;2022-12-20T01:41:19;99240.41;;;-0.29;90.48
57779;BME280;43608;49.486;9.640;2022-12-20T01:41:50;99237.00;;;-0.28;90.02
57779;BME280;43608;49.486;9.640;2022-12-20T01:42:20;99212.91;;;-0.42;90.17
57779;BME280;43608;49.486;9.640;2022-12-20T01:42:50;99230.84;;;-0.30;90.13
57779;BME280;43608;49.486;9.640;2022-12-20T01:43:21;99231.72;;;-0.29;90.25
57779;BME280;43608;49.486;9.640;2022-12-20T01:43:58;99238.06;;;-0.24;90.18
57779;BME280;43608;49.486;9.640;2022-12-20T01:44:59;99235.28;;;-0.27;90.11
57779;BME280;43608;49.486;9.640;2022-12-20T01:45:30;99242.28;;;-0.26;90.15
57779;BME280;43608;49.486;9.640;2022-12-20T01:46:01;99227.31;;;-0.30;90.00
57779;BME280;43608;49.486;9.640;2022-12-20T01:46:33;99246.91;;;-0.21;90.08
57779;BME280;43608;49.486;9.640;2022-12-20T01:47:04;99233.53;;;-0.28;90.42
57779;BME280;43608;49.486;9.640;2022-12-20T01:47:35;99248.59;;;-0.21;90.30
57779;BME280;43608;49.486;9.640;2022-12-20T01:48:06;99235.38;;;-0.26;90.38
57779;BME280;43608;49.486;9.640;2022-12-20T01:48:38;99238.84;;;-0.25;89.87
57779;BME280;43608;49.486;9.640;2022-12-20T01:49:30;99238.19;;;-0.21;90.03
57779;BME280;43608;49.486;9.640;2022-12-20T01:50:03;99235.28;;;-0.27;90.43
57779;BME280;43608;49.486;9.640;2022-12-20T01:50:34;99232.78;;;-0.26;90.57
57779;BME280;43608;49.486;9.640;2022-12-20T01:51:05;99243.38;;;-0.21;90.43
57779;BME280;43608;49.486;9.640;2022-12-20T01:51:40;99235.44;;;-0.24;90.49
57779;BME280;43608;49.486;9.640;2022-12-20T01:52:24;99240.78;;;-0.21;90.68
57779;BME280;43608;49.486;9.640;2022-12-20T01:52:56;99213.06;;;-0.39;90.57
57779;BME280;43608;49.486;9.640;2022-12-20T01:53:29;99235.44;;;-0.24;90.77
57779;BME280;43608;49.486;9.640;2022-12-20T01:54:04;99227.47;;;-0.27;90.48
57779;BME280;43608;49.486;9.640;2022-12-20T01:54:45;99241.59;;;-0.22;90.50
57779;BME280;43608;49.486;9.640;2022-12-20T01:55:25;99247.03;;;-0.18;90.61
57779;BME280;43608;49.486;9.640;2022-12-20T01:56:00;99218.69;;;-0.29;90.64
57779;BME280;43608;49.486;9.640;2022-12-20T01:56:33;99210.81;;;-0.31;90.66
57779;BME280;43608;49.486;9.640;2022-12-20T01:57:09;99209.03;;;-0.32;90.48
57779;BME280;43608;49.486;9.640;2022-12-20T01:57:51;99234.09;;;-0.16;90.43
57779;BME280;43608;49.486;9.640;2022-12-20T01:58:24;99240.22;;;-0.15;90.53
57779;BME280;43608;49.486;9.640;2022-12-20T01:58:56;99236.75;;;-0.14;90.65
57779;BME280;43608;49.486;9.640;2022-12-20T01:59:27;99233.28;;;-0.15;90.74
57779;BME280;43608;49.486;9.640;2022-12-20T01:59:58;99213.78;;;-0.23;90.63
57779;BME280;43608;49.486;9.640;2022-12-20T02:00:29;99225.53;;;-0.13;90.76
57779;BME280;43608;49.486;9.640;2022-12-20T02:00:59;99235.13;;;-0.12;90.38
57779;BME280;43608;49.486;9.640;2022-12-20T02:01:29;99213.09;;;-0.19;90.73
57779;BME280;43608;49.486;9.640;2022-12-20T02:02:01;99228.19;;;-0.12;90.79
57779;BME280;43608;49.486;9.640;2022-12-20T02:02:34;99222.91;;;-0.13;90.48
57779;BME280;43608;49.486;9.640;2022-12-20T02:03:07;99224.72;;;-0.12;90.48
57779;BME280;43608;49.486;9.640;2022-12-20T02:03:39;99213.03;;;-0.21;90.52
57779;BME280;43608;49.486;9.640;2022-12-20T02:04:11;99214.22;;;-0.14;90.60
57779;BME280;43608;49.486;9.640;2022-12-20T02:04:42;99188.38;;;-0.27;90.87
57779;BME280;43608;49.486;9.640;2022-12-20T02:05:13;99215.09;;;-0.13;90.47
57779;BME280;43608;49.486;9.640;2022-12-20T02:05:46;99210.63;;;-0.16;91.08
57779;BME280;43608;49.486;9.640;2022-12-20T02:06:20;99210.56;;;-0.18;90.73
57779;BME280;43608;49.486;9.640;2022-12-20T02:06:50;99215.09;;;-0.13;91.22
57779;BME280;43608;49.486;9.640;2022-12-20T02:07:24;99222.09;;;-0.12;90.65
57779;BME280;43608;49.486;9.640;2022-12-20T02:07:56;99206.25;;;-0.17;90.84
57779;BME280;43608;49.486;9.640;2022-12-20T02:08:26;99217.69;;;-0.13;91.07
57779;BME280;43608;49.486;9.640;2022-12-20T02:08:58;99187.44;;;-0.29;90.87
57779;BME280;43608;49.486;9.640;2022-12-20T02:09:32;99217.75;;;-0.12;90.94
57779;BME280;43608;49.486;9.640;2022-12-20T02:10:05;99216.88;;;-0.12;91.14
57779;BME280;43608;49.486;9.640;2022-12-20T02:11:57;99210.56;;;-0.18;91.32
57779;BME280;43608;49.486;9.640;2022-12-20T02:12:50;99218.69;;;-0.11;91.39
57779;BME280;43608;49.486;9.640;2022-12-20T02:13:48;99209.94;;;-0.12;91.39
57779;BME280;43608;49.486;9.640;2022-12-20T02:14:30;99209.13;;;-0.11;91.02
57779;BME280;43608;49.486;9.640;2022-12-20T02:15:13;99211.81;;;-0.09;91.26
57779;BME280;43608;49.486;9.640;2022-12-20T02:15:55;99196.72;;;-0.17;91.41
57779;BME280;43608;49.486;9.640;2022-12-20T02:16:29;99200.50;;;-0.10;90.98
57779;BME280;43608;49.486;9.640;2022-12-20T02:18:25;99197.09;;;-0.09;91.27
57779;BME280;43608;49.486;9.640;2022-12-20T02:19:08;99198.88;;;-0.08;90.92
57779;BME280;43608;49.486;9.640;2022-12-20T02:20:50;99186.38;;;-0.15;91.08
57779;BME280;43608;49.486;9.640;2022-12-20T02:21:38;99189.84;;;-0.14;90.96
57779;BME280;43608;49.486;9.640;2022-12-20T02:24:18;99198.66;;;-0.12;90.73
57779;BME280;43608;49.486;9.640;2022-12-20T02:30:34;99217.25;;;-0.05;90.88
57779;BME280;43608;49.486;9.640;2022-12-20T02:31:10;99212.78;;;-0.07;90.77
57779;BME280;43608;49.486;9.640;2022-12-20T02:31:48;99202.13;;;-0.12;90.74
57779;BME280;43608;49.486;9.640;2022-12-20T02:32:27;99209.94;;;-0.12;91.24
57779;BME280;43608;49.486;9.640;2022-12-20T02:33:06;99224.25;;;-0.04;90.95
57779;BME280;43608;49.486;9.640;2022-12-20T02:33:40;99209.13;;;-0.11;91.12
57779;BME280;43608;49.486;9.640;2022-12-20T02:34:13;99218.88;;;-0.07;90.96
57779;BME280;43608;49.486;9.640;2022-12-20T02:34:45;99204.75;;;-0.12;90.85
57779;BME280;43608;49.486;9.640;2022-12-20T02:35:24;99225.13;;;-0.03;91.16
57779;BME280;43608;49.486;9.640;2022-12-20T02:35:55;99211.75;;;-0.11;90.78
57779;BME280;43608;49.486;9.640;2022-12-20T02:36:26;99210.81;;;-0.13;91.04
57779;BME280;43608;49.486;9.640;2022-12-20T02:36:56;99217.13;;;-0.08;91.27
57779;BME280;43608;49.486;9.640;2022-12-20T02:37:26;99225.06;;;-0.05;91.47
57779;BME280;43608;49.486;9.640;2022-12-20T02:37:59;99226.03;;;-0.03;91.36
57779;BME280;43608;49.486;9.640;2022-12-20T02:38:32;99222.53;;;-0.03;91.23
57779;BME280;43608;49.486;9.640;2022-12-20T02:39:03;99218.06;;;-0.06;91.49
57779;BME280;43608;49.486;9.640;2022-12-20T02:39:35;99219.91;;;-0.03;91.56
57779;BME280;43608;49.486;9.640;2022-12-20T02:40:07;99204.75;;;-0.12;91.49
57779;BME280;43608;49.486;9.640;2022-12-20T02:41:26;99221.78;;;-0.01;91.60
57779;BME280;43608;49.486;9.640;2022-12-20T02:42:01;99203.34;;;-0.05;91.60
57779;BME280;43608;49.486;9.640;2022-12-20T02:42:33;99206.13;;;-0.01;91.51
57779;BME280;43608;49.486;9.640;2022-12-20T02:43:06;99215.75;;;0.01;91.42
57779;BME280;43608;49.486;9.640;2022-12-20T02:44:06;99213.16;;;0.01;92.06
57779;BME280;43608;49.486;9.640;2022-12-20T02:45:00;99205.03;;;-0.06;91.87
57779;BME280;43608;49.486;9.640;2022-12-20T02:45:44;99200.78;;;-0.04;91.69
57779;BME280;43608;49.486;9.640;2022-12-20T02:46:18;99196.47;;;-0.03;92.22
57779;BME280;43608;49.486;9.640;2022-12-20T02:46:52;99202.72;;;0.01;91.97
57779;BME280;43608;49.486;9.640;2022-12-20T02:47:28;99181.22;;;-0.13;91.61
57779;BME280;43608;49.486;9.640;2022-12-20T02:48:10;99199.28;;;0.02;92.07
57779;BME280;43608;49.486;9.640;2022-12-20T02:48:42;99187.78;;;-0.04;92.10
57779;BME280;43608;49.486;9.640;2022-12-20T02:49:15;99203.75;;;0.04;91.77
57779;BME280;43608;49.486;9.640;2022-12-20T02:49:48;99204.56;;;0.03;91.96
57779;BME280;43608;49.486;9.640;2022-12-20T02:50:27;99202.91;;;0.05;92.05
57779;BME280;43608;49.486;9.640;2022-12-20T02:50:59;99192.47;;;0.05;92.19
57779;BME280;43608;49.486;9.640;2022-12-20T02:51:31;99196.00;;;0.06;92.40
57779;BME280;43608;49.486;9.640;2022-12-20T02:52:02;99182.56;;;-0.04;92.25
57779;BME280;43608;49.486;9.640;2022-12-20T02:52:33;99129.25;;;-0.30;91.74
57779;BME280;43608;49.486;9.640;2022-12-20T02:53:06;99185.34;;;0.01;92.34
57779;BME280;43608;49.486;9.640;2022-12-20T02:53:37;99184.47;;;0.01;92.50
57779;BME280;43608;49.486;9.640;2022-12-20T02:54:08;99188.31;;;0.09;92.30
57779;BME280;43608;49.486;9.640;2022-12-20T02:54:38;99173.06;;;-0.02;92.25
57779;BME280;43608;49.486;9.640;2022-12-20T02:55:09;99190.09;;;0.10;92.26
57779;BME280;43608;49.486;9.640;2022-12-20T02:56:23;99181.31;;;0.08;91.96
57779;BME280;43608;49.486;9.640;2022-12-20T02:57:03;99185.78;;;0.10;92.19
57779;BME280;43608;49.486;9.640;2022-12-20T02:58:22;99178.63;;;0.06;92.17
57779;BME280;43608;49.486;9.640;2022-12-20T02:59:03;99177.69;;;0.04;92.61
57779;BME280;43608;49.486;9.640;2022-12-20T02:59:49;99183.91;;;0.08;92.69
57779;BME280;43608;49.486;9.640;2022-12-20T03:00:23;99173.38;;;0.05;92.22
57779;BME280;43608;49.486;9.640;2022-12-20T03:00:55;99181.25;;;0.06;92.38
57779;BME280;43608;49.486;9.640;2022-12-20T03:01:35;99165.47;;;0.03;92.25
57779;BME280;43608;49.486;9.640;2022-12-20T03:02:07;99166.16;;;-0.01;92.32
57779;BME280;43608;49.486;9.640;2022-12-20T03:02:39;99151.06;;;-0.08;92.16
57779;BME280;43608;49.486;9.640;2022-12-20T03:03:32;99164.56;;;0.03;92.51
57779;BME280;43608;49.486;9.640;2022-12-20T03:04:03;99148.47;;;-0.08;92.48
57779;BME280;43608;49.486;9.640;2022-12-20T03:04:36;99171.72;;;0.07;92.53
57779;BME280;43608;49.486;9.640;2022-12-20T03:05:08;99108.44;;;-0.30;92.48
57779;BME280;43608;49.486;9.640;2022-12-20T03:05:44;99180.44;;;0.07;92.91
57779;BME280;43608;49.486;9.640;2022-12-20T03:06:15;99154.56;;;-0.08;92.64
57779;BME280;43608;49.486;9.640;2022-12-20T03:07:27;99154.72;;;-0.05;92.89